Time;durP1;ratioP1;P1;durP2;ratioP2;P2;SDS_P1;SDS_P2;PMS_P1;PMS_P2;Temp;Humidity;BMP_temperature;BMP_pressure;BME280_temperature;BME280_humidity;BME280_pressure;Samples;Min_cycle;Max_cycle;Signal;HPM_P1;HPM_P2
2021/08/14 00:00:23;;;;;;;43.17;40.60;;;13.50;98.00;;;;;;6287341;22;20405;-89
2021/08/14 00:02:50;;;;;;;43.30;40.57;;;13.50;97.70;;;;;;6287030;22;20433;-89
2021/08/14 00:05:17;;;;;;;41.93;39.53;;;13.40;97.70;;;;;;6276901;22;20424;-89
2021/08/14 00:07:51;;;;;;;48.60;45.53;;;13.40;97.60;;;;;;6285779;22;20491;-91
2021/08/14 00:10:20;;;;;;;53.40;50.60;;;13.40;98.00;;;;;;6276260;22;20401;-90
2021/08/14 00:12:47;;;;;;;62.30;59.03;;;13.40;98.40;;;;;;6276876;22;20402;-89
2021/08/14 00:15:17;;;;;;;60.77;57.67;;;13.40;98.80;;;;;;6286926;22;20406;-90
2021/08/14 00:17:44;;;;;;;69.63;66.07;;;13.40;98.20;;;;;;6276885;22;20399;-90
2021/08/14 00:20:14;;;;;;;76.67;72.90;;;13.40;98.80;;;;;;6287157;22;20718;-90
2021/08/14 00:22:41;;;;;;;70.23;66.63;;;13.40;99.00;;;;;;6285743;22;20456;-90
2021/08/14 00:25:20;;;;;;;;;;;;;;;;;;;;;
2021/08/14 00:27:48;;;;;;;75.30;71.80;;;13.30;99.00;;;;;;6249275;22;20428;-88
2021/08/14 00:30:15;;;;;;;86.73;82.53;;;13.30;99.00;;;;;;6276843;22;20401;-89
2021/08/14 00:32:44;;;;;;;77.10;73.17;;;13.30;99.00;;;;;;6286536;22;20409;-89
2021/08/14 00:35:14;;;;;;;89.50;84.90;;;13.30;99.60;;;;;;6276667;22;20399;-89
2021/08/14 00:37:41;;;;;;;98.77;93.77;;;13.50;99.90;;;;;;6275146;22;20398;-89
2021/08/14 00:40:09;;;;;;;100.73;96.07;;;13.60;99.90;;;;;;6276114;22;20437;-88
2021/08/14 00:42:38;;;;;;;95.10;90.90;;;13.60;99.90;;;;;;6286961;22;20453;-90
2021/08/14 00:45:08;;;;;;;81.43;77.73;;;13.60;99.10;;;;;;6276773;22;20417;-90
2021/08/14 00:47:49;;;;;;;87.93;83.60;;;13.50;99.10;;;;;;6286805;22;20417;-89
2021/08/14 00:50:16;;;;;;;96.73;92.20;;;13.50;99.90;;;;;;6286799;22;20415;-87
2021/08/14 00:52:42;;;;;;;108.93;103.10;;;13.50;99.90;;;;;;6275581;22;20459;-90
2021/08/14 00:55:10;;;;;;;107.00;101.70;;;13.50;99.90;;;;;;6276232;22;20906;-88
2021/08/14 00:57:37;;;;;;;113.27;107.67;;;13.50;99.90;;;;;;6276625;22;20432;-88
2021/08/14 01:00:08;;;;;;;119.90;114.40;;;13.60;99.90;;;;;;6286675;22;20409;-88
2021/08/14 01:02:35;;;;;;;117.23;111.60;;;13.80;99.90;;;;;;6162618;23;20503;-90
2021/08/14 01:05:05;;;;;;;113.00;107.70;;;13.80;99.90;;;;;;6154342;23;20503;-90
2021/08/14 01:07:35;;;;;;;109.43;104.20;;;13.70;99.90;;;;;;6153660;23;20422;-88
2021/08/14 01:10:08;;;;;;;107.13;102.07;;;13.80;99.90;;;;;;6154821;23;20398;-90
2021/08/14 01:12:37;;;;;;;110.73;105.30;;;13.70;99.90;;;;;;6154829;23;20488;-90
2021/08/14 01:15:07;;;;;;;113.57;108.07;;;13.80;99.90;;;;;;6154840;23;20468;-91
2021/08/14 01:17:36;;;;;;;115.27;109.30;;;13.90;99.90;;;;;;6164843;23;20417;-90
2021/08/14 01:20:04;;;;;;;115.07;109.63;;;14.00;99.90;;;;;;6191601;22;21104;-88
2021/08/14 01:22:31;;;;;;;111.07;105.37;;;14.10;99.90;;;;;;6287240;22;20426;-90
2021/08/14 01:25:00;;;;;;;105.63;100.07;;;14.10;99.90;;;;;;6278489;22;20464;-89
2021/08/14 01:27:31;;;;;;;103.23;97.87;;;14.20;99.90;;;;;;6288172;22;20840;-89
2021/08/14 01:30:00;;;;;;;87.33;83.57;;;14.20;99.90;;;;;;6278734;22;20429;-87
2021/08/14 01:32:27;;;;;;;79.10;74.47;;;14.20;99.90;;;;;;6278037;22;20414;-86
2021/08/14 01:35:00;;;;;;;62.37;58.53;;;14.40;99.90;;;;;;6278325;22;20486;-89
2021/08/14 01:37:32;;;;;;;45.47;42.47;;;14.60;99.50;;;;;;6276743;22;20402;-90
2021/08/14 01:39:59;;;;;;;36.63;33.20;;;14.60;97.90;;;;;;6287930;22;20512;-90
2021/08/14 01:42:27;;;;;;;34.60;32.00;;;14.50;96.80;;;;;;6278372;22;20979;-88
2021/08/14 01:44:54;;;;;;;36.43;33.97;;;14.60;96.90;;;;;;6288241;22;20443;-91
2021/08/14 01:47:21;;;;;;;33.00;30.73;;;14.60;97.10;;;;;;6278328;22;20406;-89
2021/08/14 01:49:48;;;;;;;29.87;27.50;;;14.70;96.60;;;;;;6288278;22;20481;-90
2021/08/14 01:52:17;;;;;;;24.50;22.33;;;14.70;95.60;;;;;;6277108;22;20445;-86
2021/08/14 01:54:44;;;;;;;24.80;22.70;;;14.60;94.40;;;;;;6277933;22;20484;-90
2021/08/14 01:57:11;;;;;;;25.00;23.23;;;14.40;94.30;;;;;;6278226;22;20403;-89
2021/08/14 01:59:42;;;;;;;32.27;29.77;;;14.30;94.70;;;;;;6278193;22;20398;-90
2021/08/14 02:02:10;;;;;;;34.70;32.13;;;14.30;95.60;;;;;;6287839;22;20745;-89
2021/08/14 02:04:37;;;;;;;41.60;38.90;;;14.20;96.00;;;;;;6278175;22;20454;-88
2021/08/14 02:07:04;;;;;;;44.90;42.00;;;14.20;96.40;;;;;;6287039;22;20412;-90
2021/08/14 02:09:31;;;;;;;56.27;53.07;;;14.20;96.80;;;;;;6288032;22;20445;-89
2021/08/14 02:11:58;;;;;;;47.10;44.00;;;14.00;97.00;;;;;;6288018;22;20708;-90
2021/08/14 02:14:25;;;;;;;55.97;52.27;;;13.70;96.50;;;;;;6287937;22;20490;-90
2021/08/14 02:16:58;;;;;;;76.37;72.20;;;13.60;98.00;;;;;;6287845;22;20436;-89
2021/08/14 02:19:27;;;;;;;86.73;81.97;;;13.70;99.90;;;;;;6288054;22;20417;-87
2021/08/14 02:21:54;;;;;;;83.10;79.00;;;13.50;99.80;;;;;;6277440;22;20488;-88
2021/08/14 02:24:22;;;;;;;83.83;79.20;;;13.40;99.00;;;;;;6287760;22;20438;-88
2021/08/14 02:26:49;;;;;;;89.80;85.50;;;13.30;99.70;;;;;;6287881;22;20417;-91
2021/08/14 02:29:16;;;;;;;111.27;105.67;;;13.20;99.90;;;;;;6287920;22;20892;-90
2021/08/14 02:31:44;;;;;;;116.07;110.17;;;13.10;99.90;;;;;;6277861;22;20432;-90
2021/08/14 02:34:12;;;;;;;121.63;115.47;;;13.00;99.90;;;;;;6277740;22;20793;-90
2021/08/14 02:36:39;;;;;;;123.20;116.80;;;12.90;99.90;;;;;;6287759;22;20409;-88
2021/08/14 02:39:06;;;;;;;129.03;122.70;;;12.90;99.90;;;;;;6276451;22;20446;-91
2021/08/14 02:41:33;;;;;;;133.23;126.77;;;12.90;99.90;;;;;;6277887;22;20437;-88
2021/08/14 02:44:00;;;;;;;142.70;135.63;;;12.80;99.90;;;;;;6287571;22;20464;-88
2021/08/14 02:46:28;;;;;;;146.60;139.60;;;12.80;99.90;;;;;;6287897;22;20422;-90
2021/08/14 02:48:57;;;;;;;145.03;137.07;;;12.80;99.90;;;;;;6277647;22;20400;-89
2021/08/14 02:51:31;;;;;;;147.43;139.97;;;12.70;99.90;;;;;;6287888;22;20416;-89
2021/08/14 02:53:58;;;;;;;154.97;147.27;;;12.70;99.90;;;;;;6276359;22;20412;-90
2021/08/14 02:56:25;;;;;;;154.53;146.20;;;12.70;99.90;;;;;;6277724;22;20465;-90
2021/08/14 02:58:55;;;;;;;164.50;156.07;;;12.70;99.90;;;;;;6287901;22;20498;-90
2021/08/14 03:01:23;;;;;;;163.77;154.77;;;12.70;99.90;;;;;;6287154;22;20811;-89
2021/08/14 03:03:50;;;;;;;157.50;149.43;;;12.80;99.90;;;;;;6277414;22;20433;-88
2021/08/14 03:06:27;;;;;;;163.83;154.80;;;12.80;99.90;;;;;;6287418;22;20462;-90
2021/08/14 03:08:55;;;;;;;149.87;142.17;;;12.80;99.90;;;;;;6286473;22;20469;-90
2021/08/14 03:11:22;;;;;;;142.03;134.80;;;12.80;99.90;;;;;;6277506;22;20770;-91
2021/08/14 03:13:49;;;;;;;140.47;133.37;;;12.70;99.90;;;;;;6287512;22;20416;-90
2021/08/14 03:16:16;;;;;;;144.03;136.90;;;12.60;99.90;;;;;;6287790;22;20870;-91
2021/08/14 03:18:43;;;;;;;157.40;148.37;;;12.60;99.90;;;;;;6287828;22;20871;-90
2021/08/14 03:21:10;;;;;;;143.37;136.17;;;12.50;99.90;;;;;;6277433;22;20403;-90
2021/08/14 03:23:41;;;;;;;142.63;135.27;;;12.50;99.90;;;;;;6275986;22;20944;-90
2021/08/14 03:26:08;;;;;;;149.43;140.93;;;12.50;99.90;;;;;;6276992;22;20983;-90
2021/08/14 03:28:35;;;;;;;147.37;140.07;;;12.30;99.90;;;;;;6286529;22;20473;-89
2021/08/14 03:31:02;;;;;;;148.43;140.97;;;12.40;99.90;;;;;;6287573;22;20789;-89
2021/08/14 03:33:28;;;;;;;153.70;145.97;;;12.40;99.90;;;;;;6287259;22;20425;-90
2021/08/14 03:35:57;;;;;;;161.73;153.80;;;12.40;99.90;;;;;;6287136;22;20439;-92
2021/08/14 03:38:24;;;;;;;167.53;159.40;;;12.50;99.90;;;;;;6285812;22;20442;-90
2021/08/14 03:40:56;;;;;;;174.00;164.90;;;12.60;99.90;;;;;;6276649;22;20933;-89
2021/08/14 03:43:24;;;;;;;182.80;173.33;;;12.40;99.90;;;;;;6286973;22;20758;-90
2021/08/14 03:45:53;;;;;;;169.77;161.27;;;12.50;99.90;;;;;;6286921;22;20421;-93
2021/08/14 03:48:20;;;;;;;179.70;170.50;;;12.30;99.90;;;;;;6287078;22;20412;-90
2021/08/14 03:50:47;;;;;;;173.73;164.43;;;12.20;99.90;;;;;;6277056;22;20400;-92
2021/08/14 03:53:14;;;;;;;170.67;161.37;;;12.20;99.90;;;;;;6286189;22;20399;-90
2021/08/14 03:55:41;;;;;;;181.00;172.20;;;12.30;99.90;;;;;;6287399;22;20409;-89
2021/08/14 03:58:14;;;;;;;178.37;168.80;;;12.20;99.90;;;;;;6286974;22;20464;-89
2021/08/14 04:00:41;;;;;;;173.63;164.20;;;12.10;99.90;;;;;;6287225;22;20417;-90
2021/08/14 04:03:08;;;;;;;173.13;164.37;;;12.20;99.90;;;;;;6287245;22;20489;-80
2021/08/14 04:05:35;;;;;;;172.57;163.53;;;12.10;99.90;;;;;;6276617;22;20900;-80
2021/08/14 04:08:01;;;;;;;179.00;169.27;;;12.20;99.90;;;;;;6275368;22;20407;-80
2021/08/14 04:10:28;;;;;;;176.13;167.00;;;12.20;99.90;;;;;;6286858;22;20492;-81
2021/08/14 04:12:55;;;;;;;184.13;174.67;;;12.20;99.90;;;;;;6277073;22;20400;-81
2021/08/14 04:15:24;;;;;;;181.37;171.17;;;12.20;99.90;;;;;;6276568;22;20402;-82
2021/08/14 04:17:50;;;;;;;180.70;171.23;;;12.20;99.90;;;;;;6276976;22;20730;-80
2021/08/14 04:20:17;;;;;;;181.90;170.77;;;12.20;99.90;;;;;;6276858;22;20396;-81
2021/08/14 04:22:44;;;;;;;189.53;179.50;;;12.30;99.90;;;;;;6275279;22;20755;-81
2021/08/14 04:25:11;;;;;;;195.20;184.03;;;12.40;99.90;;;;;;6276786;22;20513;-81
2021/08/14 04:27:38;;;;;;;191.43;181.53;;;12.50;99.90;;;;;;6276878;22;20488;-80
2021/08/14 04:30:06;;;;;;;183.83;174.20;;;12.60;99.90;;;;;;6276870;22;20396;-85
2021/08/14 04:32:37;;;;;;;191.80;180.47;;;12.60;99.90;;;;;;6276892;22;20436;-87
2021/08/14 05:00:20;;;;;;;191.87;178.87;;;13.10;99.90;;;;;;5741088;24;20432;-88
2021/08/14 05:02:47;;;;;;;176.67;166.60;;;13.20;99.90;;;;;;5922129;24;20764;-82
2021/08/14 05:05:14;;;;;;;180.10;171.00;;;13.40;99.90;;;;;;6064541;23;20445;-89
2021/08/14 05:07:41;;;;;;;168.77;159.83;;;13.50;99.90;;;;;;6180209;23;20455;-85
2021/08/14 05:10:09;;;;;;;167.97;158.87;;;13.60;99.90;;;;;;6246072;23;20437;-81
2021/08/14 05:12:36;;;;;;;153.83;145.20;;;13.70;99.90;;;;;;6246014;23;20398;-84
2021/08/14 05:15:03;;;;;;;151.83;144.47;;;14.00;99.90;;;;;;6255860;23;20443;-83
2021/08/14 05:17:31;;;;;;;145.23;138.20;;;14.10;99.90;;;;;;6256082;23;20772;-83
2021/08/14 05:19:58;;;;;;;144.83;137.43;;;14.10;99.90;;;;;;6245882;23;20485;-85
2021/08/14 05:22:25;;;;;;;145.03;137.47;;;14.20;99.90;;;;;;6245342;23;20921;-85
2021/08/14 05:24:52;;;;;;;132.43;126.23;;;14.30;99.90;;;;;;6245909;23;20454;-79
2021/08/14 05:27:18;;;;;;;136.97;129.77;;;14.50;99.90;;;;;;6245748;23;20431;-78
2021/08/14 05:29:45;;;;;;;135.87;129.33;;;14.70;99.90;;;;;;6245417;23;20934;-79
2021/08/14 05:32:13;;;;;;;107.87;102.37;;;15.00;99.90;;;;;;6255760;23;20404;-80
2021/08/14 05:34:41;;;;;;;51.93;48.20;;;15.50;99.90;;;;;;6245803;23;20399;-79
2021/08/14 05:37:08;;;;;;;15.67;12.83;;;16.00;99.90;;;;;;6244290;23;20457;-80
2021/08/14 05:39:35;;;;;;;17.93;8.33;;;16.20;96.00;;;;;;6255688;22;20434;-79
2021/08/14 05:42:02;;;;;;;10.50;6.10;;;16.40;92.60;;;;;;6276020;22;20904;-80
2021/08/14 05:44:28;;;;;;;11.40;5.30;;;16.80;91.50;;;;;;6276402;22;20513;-80
2021/08/14 05:46:55;;;;;;;14.10;4.93;;;17.40;84.70;;;;;;6286353;22;20402;-80
2021/08/14 05:49:22;;;;;;;14.90;4.93;;;17.90;78.20;;;;;;6286754;22;20406;-81
2021/08/14 05:51:50;;;;;;;9.90;4.80;;;18.10;73.30;;;;;;6277621;22;20407;-78
2021/08/14 05:54:17;;;;;;;11.10;6.63;;;18.30;68.50;;;;;;6286855;22;20410;-78
2021/08/14 05:56:46;;;;;;;8.70;4.57;;;18.20;64.80;;;;;;6277856;22;20402;-77
2021/08/14 05:59:12;;;;;;;11.07;5.47;;;18.20;63.60;;;;;;6278220;22;20395;-78
2021/08/14 06:01:39;;;;;;;9.40;5.20;;;18.30;66.20;;;;;;6287944;22;20459;-78
2021/08/14 06:04:06;;;;;;;11.20;5.10;;;18.70;61.30;;;;;;6278118;22;20537;-79
2021/08/14 06:06:33;;;;;;;10.67;4.63;;;19.10;56.80;;;;;;6288143;22;20481;-78
2021/08/14 06:09:01;;;;;;;15.83;5.10;;;19.10;56.80;;;;;;6276123;22;20498;-78
2021/08/14 06:11:29;;;;;;;7.90;5.00;;;19.10;52.40;;;;;;6287302;22;20892;-77
2021/08/14 06:13:56;;;;;;;12.67;4.70;;;19.30;50.10;;;;;;6277608;22;20403;-76
2021/08/14 06:16:23;;;;;;;9.97;5.00;;;19.70;51.00;;;;;;6278075;22;20394;-77
2021/08/14 06:18:50;;;;;;;15.53;5.17;;;19.70;46.40;;;;;;6277786;22;20387;-76
2021/08/14 06:21:17;;;;;;;11.83;5.00;;;19.70;47.00;;;;;;6287965;22;20445;-77
2021/08/14 06:23:44;;;;;;;15.03;5.17;;;19.30;48.30;;;;;;6286762;22;20476;-77
2021/08/14 06:26:12;;;;;;;12.13;6.10;;;19.10;48.70;;;;;;6278167;22;20426;-77
2021/08/14 06:28:39;;;;;;;12.83;5.60;;;18.90;48.90;;;;;;6287866;22;20406;-78
2021/08/14 06:31:06;;;;;;;11.10;5.30;;;19.00;49.30;;;;;;6277576;22;20456;-77
2021/08/14 06:33:33;;;;;;;10.73;4.60;;;19.10;50.30;;;;;;6277914;22;20426;-78
2021/08/14 06:36:00;;;;;;;16.03;5.10;;;19.10;50.20;;;;;;6287863;22;20486;-77
2021/08/14 06:38:27;;;;;;;13.40;5.77;;;19.10;47.40;;;;;;6276373;22;20450;-77
2021/08/14 06:40:53;;;;;;;13.50;5.17;;;19.20;47.70;;;;;;6277330;22;21023;-77
2021/08/14 06:43:22;;;;;;;10.23;4.30;;;18.90;45.80;;;;;;6277839;22;20473;-78
2021/08/14 06:45:49;;;;;;;9.03;4.67;;;19.00;47.00;;;;;;6287664;22;20445;-77
2021/08/14 06:48:16;;;;;;;13.20;5.03;;;18.90;47.50;;;;;;6277784;22;20402;-77
2021/08/14 06:50:43;;;;;;;8.47;4.00;;;18.90;47.40;;;;;;6277718;22;20490;-80
2021/08/14 06:53:10;;;;;;;11.00;5.03;;;18.90;48.50;;;;;;6276242;22;20406;-79
2021/08/14 06:55:37;;;;;;;8.90;4.53;;;18.90;49.20;;;;;;6277700;22;20754;-79
2021/08/14 06:58:04;;;;;;;11.77;4.30;;;19.00;45.70;;;;;;6277355;22;20485;-80
2021/08/14 07:00:33;;;;;;;11.80;3.70;;;19.00;44.10;;;;;;6277699;22;20474;-81
2021/08/14 07:03:00;;;;;;;10.17;4.97;;;19.00;46.50;;;;;;6277506;22;20403;-80
2021/08/14 07:05:27;;;;;;;11.20;5.80;;;19.10;44.60;;;;;;6277308;22;20487;-80
2021/08/14 07:07:54;;;;;;;12.20;4.97;;;19.10;46.80;;;;;;6276122;22;20481;-80
2021/08/14 07:10:21;;;;;;;10.40;4.87;;;19.00;45.00;;;;;;6277214;22;20870;-80
2021/08/14 07:12:48;;;;;;;9.27;3.80;;;19.10;46.80;;;;;;6277631;22;20398;-88
2021/08/14 07:15:15;;;;;;;8.50;4.07;;;19.20;45.00;;;;;;6287789;22;20963;-78
2021/08/14 07:17:43;;;;;;;9.07;3.43;;;19.20;46.90;;;;;;6277044;22;20419;-77
2021/08/14 07:20:11;;;;;;;12.63;4.00;;;19.20;43.60;;;;;;6277394;22;20406;-83
2021/08/14 07:22:37;;;;;;;10.53;3.90;;;19.20;42.50;;;;;;6274926;22;20924;-82
2021/08/14 07:25:05;;;;;;;13.13;4.87;;;19.20;44.10;;;;;;6273851;22;20464;-80
2021/08/14 07:27:31;;;;;;;7.60;3.13;;;19.20;43.60;;;;;;6275411;22;20398;-81
2021/08/14 07:29:58;;;;;;;8.57;3.40;;;19.20;44.40;;;;;;6275672;22;20398;-81
2021/08/14 07:32:25;;;;;;;10.13;3.73;;;19.10;43.50;;;;;;6277059;22;20398;-79
2021/08/14 07:34:53;;;;;;;14.10;3.80;;;19.20;43.60;;;;;;6277224;22;20403;-78
2021/08/14 07:37:20;;;;;;;17.27;3.50;;;19.20;43.00;;;;;;6275514;22;20434;-80
2021/08/14 07:39:47;;;;;;;10.43;4.73;;;19.20;41.70;;;;;;6276868;22;20949;-82
2021/08/14 07:42:14;;;;;;;8.10;2.67;;;19.30;43.70;;;;;;6277411;22;20492;-81
2021/08/14 07:44:41;;;;;;;10.90;3.40;;;19.40;40.00;;;;;;6286951;22;20437;-81
2021/08/14 07:47:07;;;;;;;9.73;3.07;;;19.50;42.10;;;;;;6286998;22;20463;-82
2021/08/14 07:49:34;;;;;;;8.37;3.20;;;19.50;40.80;;;;;;6277208;22;20403;-83
2021/08/14 07:52:03;;;;;;;9.50;3.13;;;19.50;39.10;;;;;;6275704;22;20406;-81
2021/08/14 07:54:29;;;;;;;11.57;3.20;;;19.50;36.10;;;;;;6287353;22;20398;-81
2021/08/14 07:56:57;;;;;;;10.53;3.57;;;19.60;36.90;;;;;;6276712;22;20402;-81
2021/08/14 07:59:26;;;;;;;13.20;2.63;;;19.70;37.00;;;;;;6277017;22;20460;-81
2021/08/14 08:01:53;;;;;;;6.20;3.10;;;19.80;33.40;;;;;;6277009;22;20453;-81
2021/08/14 08:04:21;;;;;;;10.03;2.90;;;20.00;34.60;;;;;;6287290;22;20520;-81
2021/08/14 08:06:53;;;;;;;9.20;2.13;;;20.50;31.30;;;;;;6287410;22;20453;-81
2021/08/14 08:10:05;;;;;;;5.87;2.63;;;20.80;32.50;;;;;;6276080;22;20481;-83
2021/08/14 08:16:08;;;;;;;7.90;2.40;;;21.70;29.10;;;;;;6274053;22;20421;-83
2021/08/14 08:18:35;;;;;;;7.03;2.20;;;22.30;24.30;;;;;;6257816;22;20859;-82
2021/08/14 08:21:02;;;;;;;10.40;3.10;;;22.30;20.60;;;;;;6276362;22;20441;-82
2021/08/14 08:23:29;;;;;;;6.67;2.50;;;22.50;20.30;;;;;;6285685;22;20790;-82
2021/08/14 08:25:58;;;;;;;6.10;2.13;;;22.70;19.10;;;;;;6276491;22;20960;-82
2021/08/14 08:28:27;;;;;;;7.07;2.90;;;22.80;18.30;;;;;;6286737;22;20438;-82
2021/08/14 08:30:54;;;;;;;8.17;2.90;;;22.90;18.20;;;;;;6276298;22;20399;-82
2021/08/14 08:33:21;;;;;;;9.13;3.07;;;22.90;16.20;;;;;;6276671;22;20441;-82
2021/08/14 08:35:48;;;;;;;6.40;2.40;;;23.00;17.30;;;;;;6287094;22;20421;-81
2021/08/14 08:38:52;;;;;;;7.40;2.77;;;23.00;14.80;;;;;;6275116;22;20465;-82
2021/08/14 08:41:21;;;;;;;10.67;3.20;;;22.90;14.40;;;;;;6245566;22;20922;-81
2021/08/14 08:43:51;;;;;;;9.17;2.70;;;23.20;15.20;;;;;;6286530;22;20413;-81
2021/08/14 08:46:19;;;;;;;9.63;3.03;;;23.20;13.00;;;;;;6276648;22;20468;-80
2021/08/14 08:48:50;;;;;;;6.33;2.43;;;23.60;14.10;;;;;;6276657;22;20453;-80
2021/08/14 08:51:21;;;;;;;7.43;2.47;;;23.90;11.50;;;;;;6276577;22;20398;-81
2021/08/14 08:53:48;;;;;;;8.40;2.50;;;24.40;14.60;;;;;;6284978;22;20399;-80
2021/08/14 08:56:15;;;;;;;8.67;2.67;;;24.50;11.70;;;;;;6276509;22;20402;-82
2021/08/14 08:59:01;;;;;;;10.27;2.60;;;24.90;15.10;;;;;;6286822;22;20410;-83
2021/08/14 09:01:28;;;;;;;7.13;2.63;;;24.90;10.20;;;;;;6273333;22;20406;-82
2021/08/14 09:03:54;;;;;;;9.73;3.00;;;24.90;11.20;;;;;;6276545;22;20401;-79
2021/08/14 09:06:40;;;;;;;6.80;2.20;;;25.10;9.40;;;;;;6275962;22;20489;-80
2021/08/14 09:09:08;;;;;;;8.90;3.10;;;25.20;8.20;;;;;;6285272;22;20401;-80
2021/08/14 09:11:34;;;;;;;12.23;3.43;;;25.20;7.50;;;;;;6276689;22;20373;-80
2021/08/14 10:02:45;;;;;;;7.17;2.43;;;27.80;1.00;;;;;;6244600;23;20458;-86
2021/08/14 10:05:14;;;;;;;9.40;3.67;;;27.50;1.00;;;;;;6257263;23;20948;-82
2021/08/14 10:07:41;;;;;;;9.43;1.97;;;27.70;1.00;;;;;;6256345;23;20752;-82
2021/08/14 10:10:09;;;;;;;6.00;2.00;;;28.00;1.00;;;;;;6257895;23;20434;-82
2021/08/14 10:12:36;;;;;;;9.50;2.43;;;28.40;1.00;;;;;;6247627;23;20385;-81
2021/08/14 10:15:03;;;;;;;20.30;16.83;;;28.90;1.00;;;;;;6247786;23;20430;-81
2021/08/14 10:17:38;;;;;;;7.63;2.53;;;29.60;1.00;;;;;;6247832;23;20399;-82
2021/08/14 10:23:48;;;;;;;9.50;2.70;;;29.30;1.00;;;;;;6090661;23;20604;-85
2021/08/14 10:26:19;;;;;;;4.90;1.87;;;29.50;1.00;;;;;;6108037;23;20496;-81
2021/08/14 10:32:48;;;;;;;6.43;2.50;;;29.30;1.00;;;;;;6238740;23;20441;-84
2021/08/14 10:35:36;;;;;;;12.93;2.00;;;28.80;1.00;;;;;;6247254;23;20156;-83
2021/08/14 10:38:04;;;;;;;15.00;2.40;;;28.70;1.00;;;;;;6225121;23;20819;-80
2021/08/14 10:41:01;;;;;;;7.80;2.50;;;28.70;1.00;;;;;;6216889;23;20428;-80
2021/08/14 10:43:59;;;;;;;6.20;2.07;;;28.80;1.00;;;;;;6216854;23;20931;-81
2021/08/14 10:46:49;;;;;;;6.70;2.67;;;29.00;1.00;;;;;;6226245;23;20768;-82
2021/08/14 10:49:38;;;;;;;7.80;2.50;;;30.30;1.00;;;;;;6210636;23;20418;-84
2021/08/14 10:52:12;;;;;;;5.53;2.03;;;30.30;1.00;;;;;;6225342;23;20378;-84
2021/08/14 10:55:19;;;;;;;6.40;2.60;;;29.60;1.00;;;;;;6216386;23;20404;-83
2021/08/14 10:57:56;;;;;;;8.70;2.50;;;30.20;1.00;;;;;;6216782;23;20407;-85
2021/08/14 11:04:21;;;;;;;7.50;2.17;;;30.90;1.00;;;;;;5999691;23;20417;-83
2021/08/14 11:14:12;;;;;;;6.67;2.93;;;31.50;1.00;;;;;;6004925;23;20788;-82
2021/08/14 11:20:02;;;;;;;9.40;2.47;;;31.90;1.00;;;;;;6027469;23;20798;-84
2021/08/14 11:22:31;;;;;;;13.23;2.80;;;30.90;1.00;;;;;;6082759;23;20491;-86
2021/08/14 11:25:03;;;;;;;6.00;2.30;;;31.00;1.00;;;;;;6183527;23;20416;-84
2021/08/14 11:27:32;;;;;;;6.70;2.33;;;30.00;1.00;;;;;;6216429;23;20865;-87
2021/08/14 11:55:48;;;;;;;6.30;2.17;;;29.80;1.00;;;;;;5794349;24;20536;-81
2021/08/14 11:59:10;;;;;;;;;;;;;;;;;;;;;
2021/08/14 12:12:01;;;;;;;6.00;2.00;;;30.70;1.00;;;;;;6028504;23;20419;-82
2021/08/14 12:32:28;;;;;;;6.30;2.30;;;31.10;1.00;;;;;;6028726;23;20993;-81
2021/08/14 12:47:36;;;;;;;5.80;2.10;;;33.20;1.00;;;;;;5958821;24;20487;-82
2021/08/14 12:50:15;;;;;;;10.50;2.47;;;32.50;1.00;;;;;;6174919;23;20416;-81
2021/08/14 12:53:01;;;;;;;5.90;2.40;;;31.80;1.00;;;;;;6210528;23;20458;-81
2021/08/14 12:55:35;;;;;;;5.23;2.00;;;31.70;1.00;;;;;;6213844;23;20404;-81
2021/08/14 12:58:07;;;;;;;7.00;2.00;;;32.10;1.00;;;;;;6223970;23;20487;-82
2021/08/14 13:00:36;;;;;;;6.40;2.33;;;31.80;1.00;;;;;;6213805;23;20800;-82
2021/08/14 13:03:08;;;;;;;4.67;2.00;;;31.70;1.00;;;;;;6213972;23;20422;-80
2021/08/14 13:05:37;;;;;;;6.57;2.17;;;32.10;1.00;;;;;;6213572;23;20442;-82
2021/08/14 13:08:05;;;;;;;5.53;2.00;;;31.50;1.00;;;;;;6211832;23;20374;-81
2021/08/14 13:10:34;;;;;;;7.50;2.90;;;31.40;1.00;;;;;;6213412;23;20400;-80
2021/08/14 13:13:02;;;;;;;7.03;2.93;;;30.90;1.00;;;;;;6225566;23;20413;-80
2021/08/14 13:15:29;;;;;;;8.80;2.67;;;31.20;1.00;;;;;;6215474;23;20483;-81
2021/08/14 13:17:57;;;;;;;8.40;2.70;;;31.50;1.00;;;;;;6225618;23;20411;-81
2021/08/14 13:20:28;;;;;;;6.63;2.90;;;31.60;1.00;;;;;;6215435;23;20427;-82
2021/08/14 13:23:12;;;;;;;6.20;2.00;;;32.10;1.00;;;;;;6213724;23;20409;-82
2021/08/14 13:25:51;;;;;;;6.97;2.50;;;32.10;1.00;;;;;;6220846;23;20398;-84
2021/08/14 13:38:57;;;;;;;;;;;;;;;;;;;;;
2021/08/14 13:41:54;;;;;;;5.87;2.40;;;33.80;1.00;;;;;;6095771;23;20419;-82
2021/08/14 13:44:30;;;;;;;5.87;2.47;;;33.80;1.00;;;;;;6084227;23;20427;-83
2021/08/14 13:46:57;;;;;;;6.50;2.47;;;32.80;1.00;;;;;;6215392;23;20431;-82
2021/08/14 13:49:30;;;;;;;5.27;2.40;;;32.70;1.00;;;;;;6214949;23;20383;-82
2021/08/14 13:51:59;;;;;;;11.43;3.70;;;32.60;1.00;;;;;;6214913;23;20872;-85
2021/08/14 13:54:25;;;;;;;12.10;3.30;;;32.40;1.00;;;;;;6223891;23;20439;-81
2021/08/14 13:56:52;;;;;;;14.90;3.17;;;32.10;1.00;;;;;;6225366;23;20490;-83
2021/08/14 13:59:21;;;;;;;13.23;3.13;;;31.60;1.00;;;;;;6215339;23;20768;-81
2021/08/14 14:01:49;;;;;;;7.80;3.00;;;31.80;1.00;;;;;;6225102;23;20406;-81
2021/08/14 14:04:16;;;;;;;8.60;2.93;;;32.40;1.00;;;;;;6225154;23;20382;-82
2021/08/14 14:06:43;;;;;;;8.27;3.43;;;32.10;1.00;;;;;;6215113;23;20435;-81
2021/08/14 14:09:09;;;;;;;8.10;3.37;;;31.80;1.00;;;;;;6223850;23;20823;-82
2021/08/14 14:11:36;;;;;;;8.63;2.87;;;32.10;1.00;;;;;;6225497;23;20383;-81
2021/08/14 14:14:03;;;;;;;9.13;2.73;;;32.50;1.00;;;;;;6217106;23;20444;-80
2021/08/14 14:16:30;;;;;;;7.67;3.30;;;32.70;1.00;;;;;;6217065;23;20404;-81
2021/08/14 14:18:59;;;;;;;8.50;3.50;;;32.60;1.00;;;;;;6216634;23;20413;-80
2021/08/14 14:21:26;;;;;;;7.37;2.67;;;30.90;1.00;;;;;;6216566;23;20479;-81
2021/08/14 14:23:53;;;;;;;6.70;2.60;;;31.00;1.00;;;;;;6215401;23;20489;-80
2021/08/14 14:26:20;;;;;;;7.23;2.40;;;32.10;1.00;;;;;;6216498;23;20518;-82
2021/08/14 14:28:50;;;;;;;7.30;3.00;;;31.90;1.00;;;;;;6226993;23;20731;-81
2021/08/14 14:31:17;;;;;;;6.97;2.87;;;31.90;1.00;;;;;;6216886;23;20411;-82
2021/08/14 14:33:44;;;;;;;6.20;2.87;;;31.20;1.00;;;;;;6226454;23;20415;-82
2021/08/14 14:36:12;;;;;;;8.23;2.87;;;31.10;1.00;;;;;;6226846;23;20879;-80
2021/08/14 14:38:39;;;;;;;7.87;3.40;;;30.90;1.00;;;;;;6215417;23;20684;-81
2021/08/14 14:41:06;;;;;;;9.10;3.00;;;30.90;1.00;;;;;;6215951;23;20897;-82
2021/08/14 14:43:33;;;;;;;9.47;3.43;;;31.70;1.00;;;;;;6216858;23;20453;-82
2021/08/14 14:45:59;;;;;;;7.93;3.00;;;32.00;1.00;;;;;;6216797;23;20462;-85
2021/08/14 14:48:26;;;;;;;6.30;2.53;;;32.30;1.00;;;;;;6216626;23;20439;-81
2021/08/14 14:50:53;;;;;;;11.47;3.77;;;31.90;1.00;;;;;;6216665;23;20903;-82
2021/08/14 14:53:25;;;;;;;7.67;3.17;;;31.60;1.00;;;;;;6215231;23;20459;-82
2021/08/14 14:55:51;;;;;;;6.63;3.00;;;31.60;1.00;;;;;;6227181;23;20512;-81
2021/08/14 14:58:18;;;;;;;9.03;3.17;;;31.70;1.00;;;;;;6216751;23;20451;-87
2021/08/14 15:00:47;;;;;;;14.23;5.10;;;31.60;1.00;;;;;;6226841;23;20381;-84
2021/08/14 15:03:14;;;;;;;7.87;3.60;;;30.70;1.00;;;;;;6225788;23;20977;-81
2021/08/14 15:05:43;;;;;;;10.87;3.17;;;30.20;1.00;;;;;;6226708;23;20375;-81
2021/08/14 15:08:11;;;;;;;9.33;3.20;;;30.90;1.00;;;;;;6215074;23;20418;-83
2021/08/14 15:10:45;;;;;;;10.83;3.40;;;31.10;1.00;;;;;;6216768;23;20404;-80
2021/08/14 15:13:12;;;;;;;10.73;3.03;;;30.90;1.00;;;;;;6226663;23;20796;-76
2021/08/14 15:15:39;;;;;;;8.97;2.67;;;30.10;1.00;;;;;;6215880;23;20400;-78
2021/08/14 15:18:08;;;;;;;9.43;3.13;;;30.70;1.00;;;;;;6226349;23;20400;-79
2021/08/14 15:20:36;;;;;;;16.63;3.60;;;30.60;1.00;;;;;;6216449;23;20729;-78
2021/08/14 15:23:03;;;;;;;7.70;2.53;;;30.40;1.00;;;;;;6215000;23;20890;-78
2021/08/14 15:25:29;;;;;;;6.37;2.83;;;30.70;1.00;;;;;;6216538;23;20400;-82
2021/08/14 15:27:58;;;;;;;7.73;3.60;;;30.70;1.00;;;;;;6215947;23;20432;-78
2021/08/14 15:30:25;;;;;;;7.30;2.97;;;30.80;1.00;;;;;;6215973;23;20971;-80
2021/08/14 15:32:52;;;;;;;12.43;3.57;;;30.90;1.00;;;;;;6216316;23;20441;-81
2021/08/14 15:36:04;;;;;;;;;;;;;;;;;;;;;
2021/08/14 15:38:31;;;;;;;10.60;3.60;;;31.10;1.00;;;;;;6152711;23;20424;-77
2021/08/14 15:40:57;;;;;;;11.67;3.30;;;29.90;1.00;;;;;;6215796;23;20378;-78
2021/08/14 15:43:26;;;;;;;15.93;3.93;;;30.30;1.00;;;;;;6215524;23;20400;-77
2021/08/14 15:45:53;;;;;;;8.33;3.13;;;29.90;1.00;;;;;;6216729;23;20905;-78